Time;durP1;ratioP1;P1;durP2;ratioP2;P2;SDS_P1;SDS_P2;PMS_P1;PMS_P2;Temp;Humidity;BMP_temperature;BMP_pressure;BME280_temperature;BME280_humidity;BME280_pressure;Samples;Min_cycle;Max_cycle;Signal;HPM_P1;HPM_P2
2023/03/20 00:01:46;;;;;;;21.88;13.48;;;;;;;11.98;nan;101319.69;4991910;28;20026;-54
2023/03/20 00:04:11;;;;;;;18.60;12.82;;;;;;;11.98;nan;101319.69;4991468;28;20038;-52
2023/03/20 00:06:37;;;;;;;22.95;13.50;;;;;;;11.96;nan;101321.56;4989223;28;20112;-53
2023/03/20 00:09:03;;;;;;;19.90;11.70;;;;;;;11.96;nan;101318.91;4974895;28;20058;-52
2023/03/20 00:11:29;;;;;;;19.50;12.98;;;;;;;11.96;nan;101311.00;4988116;28;20041;-51
2023/03/20 00:13:58;;;;;;;20.20;12.82;;;;;;;11.96;nan;101316.28;4996307;28;20026;-51
2023/03/20 00:16:26;;;;;;;19.40;12.88;;;;;;;11.98;nan;101323.19;4996208;28;20113;-52
2023/03/20 00:18:51;;;;;;;23.65;12.75;;;;;;;11.99;nan;101324.91;5002255;28;20033;-52
2023/03/20 00:21:18;;;;;;;20.63;13.40;;;;;;;12.00;nan;101323.13;4978454;28;20044;-54
2023/03/20 00:23:44;;;;;;;23.52;11.88;;;;;;;11.96;nan;101324.19;4994413;28;20447;-52
2023/03/20 00:26:17;;;;;;;19.67;12.88;;;;;;;11.95;nan;101330.41;4996413;28;20057;-52
2023/03/20 00:28:43;;;;;;;;;;;;;;;11.87;nan;101321.09;4998497;28;20018;-54
2023/03/20 00:31:24;;;;;;;21.15;12.25;;;;;;;11.84;nan;101323.06;4995174;28;19948;-54
2023/03/20 00:33:50;;;;;;;21.92;12.35;;;;;;;11.78;nan;101313.69;4992104;28;20034;-52
2023/03/20 00:36:16;;;;;;;20.33;11.95;;;;;;;11.80;nan;101322.38;4998299;28;20428;-53
2023/03/20 00:38:41;;;;;;;21.63;11.73;;;;;;;11.79;nan;101320.66;4995113;28;20096;-52
2023/03/20 00:41:27;;;;;;;19.02;11.75;;;;;;;11.74;nan;101307.75;4996739;28;21772;-54
2023/03/20 00:43:58;;;;;;;20.23;11.95;;;;;;;11.75;nan;101319.13;4996870;28;20428;-52
2023/03/20 00:46:25;;;;;;;21.58;12.88;;;;;;;11.74;nan;101320.94;4989815;28;20400;-53
2023/03/20 00:48:51;;;;;;;17.23;11.70;;;;;;;11.77;nan;101321.69;4995120;28;20401;-53
2023/03/20 00:51:17;;;;;;;23.90;11.90;;;;;;;11.71;nan;101317.63;4995563;28;20025;-52
2023/03/20 00:53:43;;;;;;;19.70;12.73;;;;;;;11.69;nan;101314.19;4993796;28;20033;-53
2023/03/20 00:56:35;;;;;;;22.38;12.48;;;;;;;11.67;nan;101314.25;4985736;28;20038;-53
2023/03/20 00:59:02;;;;;;;18.10;11.52;;;;;;;11.65;nan;101315.28;4991268;28;20160;-52
2023/03/20 01:01:30;;;;;;;21.65;12.70;;;;;;;11.65;nan;101317.91;4998788;28;20041;-52
2023/03/20 01:03:55;;;;;;;21.20;13.00;;;;;;;11.63;nan;101319.78;4990122;28;20070;-54
2023/03/20 01:06:21;;;;;;;21.17;12.75;;;;;;;11.61;nan;101311.97;4983819;28;20137;-53
2023/03/20 01:08:47;;;;;;;20.75;11.95;;;;;;;11.63;nan;101311.88;4996574;28;20113;-52
2023/03/20 01:11:15;;;;;;;21.23;12.30;;;;;;;11.63;nan;101309.25;4989074;28;20025;-51
2023/03/20 01:13:41;;;;;;;17.88;12.00;;;;;;;11.62;nan;101313.69;4989009;28;20034;-53
2023/03/20 01:16:18;;;;;;;19.23;12.50;;;;;;;11.56;nan;101314.84;4996637;28;20037;-52
2023/03/20 01:18:44;;;;;;;18.52;11.65;;;;;;;11.53;nan;101312.38;4991641;28;20061;-53
2023/03/20 01:21:11;;;;;;;19.95;12.30;;;;;;;11.50;nan;101317.81;4988706;28;20524;-52
2023/03/20 01:23:36;;;;;;;18.77;12.23;;;;;;;11.47;nan;101310.06;4995632;28;20107;-52
2023/03/20 01:26:02;;;;;;;18.88;12.05;;;;;;;11.48;nan;101311.75;4987400;28;20488;-51
2023/03/20 01:28:30;;;;;;;19.15;11.88;;;;;;;11.50;nan;101309.91;4995467;28;20061;-52
2023/03/20 01:30:55;;;;;;;17.25;12.25;;;;;;;11.48;nan;101310.91;4985620;28;20460;-53
2023/03/20 01:33:25;;;;;;;18.25;11.68;;;;;;;11.46;nan;101318.88;4988209;28;20144;-52
2023/03/20 01:35:51;;;;;;;18.20;12.15;;;;;;;11.41;nan;101316.50;4990443;28;20045;-53
2023/03/20 01:38:23;;;;;;;18.52;12.43;;;;;;;11.39;nan;101322.78;5000655;28;20026;-55
2023/03/20 01:40:56;;;;;;;16.75;11.93;;;;;;;11.37;nan;101324.66;4991761;28;20144;-53
2023/03/20 01:43:23;;;;;;;19.45;12.18;;;;;;;11.34;nan;101315.13;4995212;28;20038;-52
2023/03/20 01:45:56;;;;;;;18.98;12.32;;;;;;;11.35;nan;101326.50;4984362;28;20054;-52
2023/03/20 01:48:25;;;;;;;19.52;11.55;;;;;;;11.33;nan;101334.50;4989662;28;20062;-52
2023/03/20 01:50:50;;;;;;;21.77;13.68;;;;;;;11.33;nan;101328.38;4990365;28;20023;-54
2023/03/20 01:53:22;;;;;;;21.45;13.77;;;;;;;11.31;nan;101314.41;4992517;28;20021;-52
2023/03/20 01:55:51;;;;;;;22.38;13.65;;;;;;;11.33;nan;101312.56;4989905;28;20026;-54
2023/03/20 01:58:23;;;;;;;17.15;12.85;;;;;;;11.32;nan;101326.66;4988983;28;20023;-53
2023/03/20 02:00:48;;;;;;;;;;;;;;;11.28;nan;101318.91;4991206;28;20036;-53
2023/03/20 02:03:15;;;;;;;23.40;13.50;;;;;;;11.28;nan;101307.53;4993856;28;19929;-51
2023/03/20 02:05:42;;;;;;;22.85;12.57;;;;;;;11.27;nan;101314.56;4985972;28;20041;-55
2023/03/20 02:08:25;;;;;;;16.98;12.20;;;;;;;11.27;nan;101314.56;4989817;28;20113;-51
2023/03/20 02:10:53;;;;;;;26.95;12.35;;;;;;;11.24;nan;101314.75;4986828;28;20045;-52
2023/03/20 02:13:19;;;;;;;19.35;12.98;;;;;;;11.23;nan;101315.69;4989637;28;20109;-50
2023/03/20 02:15:58;;;;;;;21.90;13.27;;;;;;;11.26;nan;101325.19;4997829;28;20481;-55
2023/03/20 02:18:24;;;;;;;18.85;11.90;;;;;;;11.20;nan;101315.81;4987703;28;20038;-52
2023/03/20 02:21:05;;;;;;;20.05;12.90;;;;;;;11.20;nan;101322.88;4984561;28;20033;-54
2023/03/20 02:23:48;;;;;;;20.02;12.98;;;;;;;11.15;nan;101324.91;4987851;28;20092;-53
2023/03/20 02:26:34;;;;;;;19.35;12.38;;;;;;;11.12;nan;101321.50;4986243;28;20148;-52
2023/03/20 02:29:21;;;;;;;20.15;12.30;;;;;;;11.08;nan;101324.38;4984531;28;20459;-52
2023/03/20 02:32:11;;;;;;;20.60;13.25;;;;;;;11.07;nan;101323.50;4997933;28;20064;-52
2023/03/20 02:35:10;;;;;;;21.08;13.18;;;;;;;11.00;nan;101316.84;4993037;28;20022;-57
2023/03/20 02:38:10;;;;;;;19.95;12.52;;;;;;;11.03;nan;101315.81;4991610;28;20038;-53
2023/03/20 02:40:46;;;;;;;16.85;11.38;;;;;;;11.04;nan;101320.16;4989459;28;20045;-52
2023/03/20 02:43:21;;;;;;;19.60;12.50;;;;;;;11.05;nan;101324.50;4991022;28;20083;-53
2023/03/20 02:46:18;;;;;;;16.55;12.50;;;;;;;11.06;nan;101320.94;4982715;28;20023;-54
2023/03/20 02:49:02;;;;;;;20.20;12.45;;;;;;;11.03;nan;101321.97;4986256;28;20109;-53
2023/03/20 02:51:43;;;;;;;17.60;12.00;;;;;;;11.05;nan;101319.25;4987556;28;20038;-52
2023/03/20 02:54:49;;;;;;;23.23;12.02;;;;;;;11.08;nan;101319.09;4993114;28;20038;-54
2023/03/20 02:57:22;;;;;;;20.08;13.10;;;;;;;11.06;nan;101315.69;4978010;28;20042;-52
2023/03/20 03:00:09;;;;;;;18.00;11.70;;;;;;;11.04;nan;101312.25;4979026;28;20026;-53
2023/03/20 03:02:39;;;;;;;18.88;12.30;;;;;;;11.04;nan;101312.25;4989469;28;20487;-52
2023/03/20 03:05:18;;;;;;;18.25;11.30;;;;;;;11.04;nan;101320.16;4978431;28;20501;-54
2023/03/20 03:07:47;;;;;;;18.33;13.07;;;;;;;11.05;nan;101319.25;4989592;28;20117;-51
2023/03/20 03:10:26;;;;;;;25.85;12.00;;;;;;;11.08;nan;101324.38;4996492;28;20033;-52
2023/03/20 03:12:54;;;;;;;11.90;8.00;;;;;;;11.10;nan;101323.34;4997869;28;20037;-52
2023/03/20 03:15:29;;;;;;;23.33;12.95;;;;;;;11.11;nan;101319.78;4987908;28;21264;-50
2023/03/20 03:17:58;;;;;;;17.52;11.43;;;;;;;11.08;nan;101325.19;4986057;28;20064;-52
2023/03/20 03:20:33;;;;;;;17.02;11.73;;;;;;;11.05;nan;101324.50;4993944;28;22467;-52
2023/03/20 03:22:59;;;;;;;17.77;12.30;;;;;;;11.05;nan;101321.88;4990281;28;20040;-53
2023/03/20 03:25:31;;;;;;;20.23;12.60;;;;;;;11.06;nan;101326.22;4993083;28;20034;-53
2023/03/20 03:28:03;;;;;;;;;;;;;;;11.02;nan;101316.75;4999130;28;20038;-52
2023/03/20 03:30:33;;;;;;;16.70;10.82;;;;;;;11.00;nan;101321.25;4990575;28;19914;-50
2023/03/20 03:33:08;;;;;;;21.73;11.82;;;;;;;10.97;nan;101320.47;4992286;28;20040;-52
2023/03/20 03:35:34;;;;;;;20.75;10.95;;;;;;;10.96;nan;101318.78;4995453;28;20026;-50
2023/03/20 03:38:11;;;;;;;20.52;11.85;;;;;;;10.92;nan;101314.59;4998228;28;20125;-51
2023/03/20 03:40:43;;;;;;;18.92;12.73;;;;;;;10.89;nan;101314.75;4994647;28;20033;-51
2023/03/20 03:43:23;;;;;;;18.70;12.20;;;;;;;10.92;nan;101309.34;4994961;28;20033;-52
2023/03/20 03:45:55;;;;;;;21.70;12.57;;;;;;;10.94;nan;101318.00;4991423;28;21807;-52
2023/03/20 03:48:27;;;;;;;17.55;11.20;;;;;;;10.98;nan;101322.16;4989979;28;20053;-52
2023/03/20 03:50:56;;;;;;;22.13;13.40;;;;;;;11.00;nan;101321.25;4991806;28;20034;-53
2023/03/20 03:53:28;;;;;;;21.85;12.18;;;;;;;11.02;nan;101324.66;4993524;28;20069;-54
2023/03/20 03:55:58;;;;;;;19.98;13.43;;;;;;;11.04;nan;101317.53;4998905;28;20032;-52
2023/03/20 03:58:29;;;;;;;21.88;12.63;;;;;;;11.05;nan;101316.59;4991690;28;20050;-52
2023/03/20 04:00:57;;;;;;;19.15;12.27;;;;;;;11.07;nan;101323.50;4986238;28;20029;-51
2023/03/20 04:03:29;;;;;;;18.35;11.32;;;;;;;11.03;nan;101319.34;4985682;28;20041;-52
2023/03/20 04:05:57;;;;;;;22.88;11.90;;;;;;;11.01;nan;101318.56;4987516;28;20034;-50
2023/03/20 04:08:22;;;;;;;20.77;12.98;;;;;;;11.02;nan;101322.03;4993927;28;20026;-53
2023/03/20 04:10:48;;;;;;;39.25;21.92;;;;;;;11.05;nan;101319.25;4991265;28;20528;-56
2023/03/20 04:13:15;;;;;;;24.42;14.27;;;;;;;11.06;nan;101327.06;4989917;28;20026;-50
2023/03/20 04:15:41;;;;;;;19.23;11.38;;;;;;;11.05;nan;101327.16;4986205;28;20113;-54
2023/03/20 04:18:08;;;;;;;24.90;11.68;;;;;;;11.04;nan;101325.44;4984343;28;20026;-54
2023/03/20 04:20:33;;;;;;;15.10;10.75;;;;;;;11.01;nan;101330.84;4993243;28;20029;-52
2023/03/20 04:23:00;;;;;;;17.23;10.98;;;;;;;11.00;nan;101331.78;4992380;28;20029;-54
2023/03/20 04:25:26;;;;;;;19.13;12.15;;;;;;;10.99;nan;101336.22;4991954;28;20077;-50
2023/03/20 04:27:52;;;;;;;20.55;12.43;;;;;;;10.96;nan;101331.97;4993544;28;20034;-57
2023/03/20 04:30:18;;;;;;;20.73;12.30;;;;;;;10.94;nan;101327.66;4990018;28;20036;-51
2023/03/20 04:32:44;;;;;;;19.70;12.43;;;;;;;10.93;nan;101337.38;4990567;28;20030;-57
2023/03/20 04:35:10;;;;;;;12.43;8.38;;;;;;;10.92;nan;101330.41;4984203;28;20760;-50
2023/03/20 04:37:35;;;;;;;19.40;12.65;;;;;;;10.93;nan;101334.72;4988298;28;20026;-48
2023/03/20 04:40:01;;;;;;;20.17;13.57;;;;;;;10.93;nan;101336.50;4988152;28;20030;-58
2023/03/20 04:42:26;;;;;;;23.90;14.02;;;;;;;10.91;nan;101339.22;4988614;28;20030;-50
2023/03/20 04:44:52;;;;;;;19.70;12.65;;;;;;;10.95;nan;101334.66;4990412;28;20075;-51
2023/03/20 04:47:17;;;;;;;21.58;12.95;;;;;;;10.97;nan;101333.63;4993503;28;20092;-54
2023/03/20 04:49:43;;;;;;;25.10;13.85;;;;;;;11.02;nan;101332.56;4977729;28;20413;-50
2023/03/20 04:52:09;;;;;;;22.60;14.27;;;;;;;11.09;nan;101336.59;4995392;28;20121;-52
2023/03/20 04:54:34;;;;;;;23.13;13.50;;;;;;;11.14;nan;101337.19;4988635;28;20068;-56
2023/03/20 04:56:59;;;;;;;30.63;15.40;;;;;;;11.17;nan;101342.31;4990430;28;20034;-55
2023/03/20 04:59:25;;;;;;;22.48;13.80;;;;;;;11.11;nan;101340.00;4993050;28;20076;-53
2023/03/20 05:01:50;;;;;;;23.90;13.50;;;;;;;11.02;nan;101341.31;4989925;28;20034;-53
2023/03/20 05:04:16;;;;;;;22.95;14.50;;;;;;;10.98;nan;101340.59;4988149;28;20420;-52
2023/03/20 05:06:42;;;;;;;22.48;12.52;;;;;;;10.92;nan;101340.94;4990154;28;20030;-50
2023/03/20 05:09:09;;;;;;;21.02;12.82;;;;;;;10.92;nan;101354.09;4987929;28;20030;-49
2023/03/20 05:11:34;;;;;;;22.83;14.57;;;;;;;10.98;nan;101359.03;4992240;28;20092;-50
2023/03/20 05:14:03;;;;;;;21.95;14.07;;;;;;;11.01;nan;101349.28;4984296;28;20932;-55
2023/03/20 05:16:29;;;;;;;24.42;15.43;;;;;;;11.02;nan;101356.25;4995122;28;20034;-50
2023/03/20 05:18:54;;;;;;;26.10;17.15;;;;;;;11.05;nan;101356.94;4988637;28;20036;-51
2023/03/20 05:21:20;;;;;;;26.73;16.40;;;;;;;11.09;nan;101352.41;4994601;28;20042;-52
2023/03/20 05:23:45;;;;;;;25.27;16.02;;;;;;;11.08;nan;101351.53;4988419;28;20030;-53
2023/03/20 05:26:11;;;;;;;32.55;18.15;;;;;;;11.09;nan;101357.66;4986756;28;20400;-50
2023/03/20 05:28:36;;;;;;;21.98;14.35;;;;;;;11.11;nan;101356.66;4989063;28;20038;-50
2023/03/20 05:31:02;;;;;;;27.33;15.25;;;;;;;11.14;nan;101358.28;4979493;28;20037;-59
2023/03/20 05:33:28;;;;;;;22.02;15.35;;;;;;;11.19;nan;101361.53;4987847;28;20093;-52
2023/03/20 05:35:53;;;;;;;22.70;14.77;;;;;;;11.20;nan;101362.38;4989428;28;20096;-52
2023/03/20 05:38:21;;;;;;;22.15;14.30;;;;;;;11.20;nan;101362.38;4967724;28;20042;-58
2023/03/20 05:40:48;;;;;;;22.73;13.32;;;;;;;11.18;nan;101356.34;4979599;28;20034;-57
2023/03/20 05:43:14;;;;;;;25.42;15.35;;;;;;;11.18;nan;101362.47;4981697;28;20101;-48
2023/03/20 05:45:41;;;;;;;25.42;15.55;;;;;;;11.17;nan;101354.66;4988662;28;20743;-55
2023/03/20 05:48:07;;;;;;;26.92;16.67;;;;;;;11.14;nan;101355.63;4987564;28;20037;-50
2023/03/20 05:50:32;;;;;;;29.63;16.58;;;;;;;11.12;nan;101362.75;4985784;28;20034;-50
2023/03/20 05:52:58;;;;;;;30.52;16.23;;;;;;;11.11;nan;101361.09;4984975;28;20037;-56
2023/03/20 05:55:23;;;;;;;25.67;14.60;;;;;;;11.09;nan;101360.31;4985880;28;20065;-53
2023/03/20 05:57:49;;;;;;;29.23;16.35;;;;;;;11.09;nan;101358.50;4986427;28;20397;-51
2023/03/20 06:00:15;;;;;;;26.02;15.00;;;;;;;11.15;nan;101359.97;4986476;28;20030;-58
2023/03/20 06:02:41;;;;;;;24.92;14.95;;;;;;;11.16;nan;101359.06;4979916;28;20034;-54
2023/03/20 06:05:06;;;;;;;25.00;15.20;;;;;;;11.19;nan;101358.91;4996977;28;20030;-50
2023/03/20 06:07:32;;;;;;;25.80;14.60;;;;;;;11.22;nan;101369.28;4999925;28;20034;-58
2023/03/20 06:09:57;;;;;;;25.15;14.93;;;;;;;11.24;nan;101366.56;4987051;28;20543;-51
2023/03/20 06:12:23;;;;;;;27.70;15.45;;;;;;;11.29;nan;101365.41;4996417;28;20045;-50
2023/03/20 06:14:48;;;;;;;29.08;16.98;;;;;;;11.34;nan;101367.81;4999925;28;20049;-51
2023/03/20 06:17:14;;;;;;;24.65;14.80;;;;;;;11.39;nan;101370.22;4994611;28;20030;-51
2023/03/20 06:19:39;;;;;;;24.50;14.40;;;;;;;11.40;nan;101370.13;4994678;28;20037;-51
2023/03/20 06:22:05;;;;;;;20.95;13.55;;;;;;;11.43;nan;101372.59;4998549;28;20038;-48
2023/03/20 06:24:32;;;;;;;23.88;14.82;;;;;;;11.42;nan;101373.53;5004240;28;20054;-50
2023/03/20 06:26:58;;;;;;;26.55;16.58;;;;;;;11.43;nan;101369.09;4996513;28;20034;-50
2023/03/20 06:29:23;;;;;;;28.92;16.00;;;;;;;11.43;nan;101374.38;4998359;28;20030;-52
2023/03/20 06:31:49;;;;;;;26.52;16.50;;;;;;;11.47;nan;101378.56;5004326;28;20116;-50
2023/03/20 06:34:14;;;;;;;30.83;17.92;;;;;;;11.52;nan;101381.84;4999616;28;20026;-51
2023/03/20 06:36:40;;;;;;;31.83;17.33;;;;;;;11.60;nan;101394.63;5000334;28;20041;-57
2023/03/20 06:39:06;;;;;;;26.23;17.20;;;;;;;11.62;nan;101394.53;5004626;28;20503;-48
2023/03/20 06:41:32;;;;;;;27.45;16.48;;;;;;;11.65;nan;101403.13;5005254;28;20254;-51
2023/03/20 06:43:57;;;;;;;25.67;16.15;;;;;;;11.65;nan;101403.13;5000940;28;20021;-48
2023/03/20 06:46:23;;;;;;;27.08;14.30;;;;;;;11.62;nan;101405.94;5014546;28;20057;-53
2023/03/20 06:48:48;;;;;;;30.15;15.82;;;;;;;11.62;nan;101407.69;5004237;28;20100;-54
2023/03/20 06:51:14;;;;;;;23.17;14.75;;;;;;;11.65;nan;101408.38;5006881;28;20038;-50
2023/03/20 06:53:42;;;;;;;24.70;14.07;;;;;;;11.65;nan;101407.56;5007588;28;20114;-49
2023/03/20 06:56:09;;;;;;;27.85;16.10;;;;;;;11.66;nan;101406.63;5009666;28;20057;-50
2023/03/20 06:58:35;;;;;;;27.40;15.27;;;;;;;11.66;nan;101404.81;5007607;28;20057;-51
2023/03/20 07:01:01;;;;;;;29.38;17.17;;;;;;;11.66;nan;101411.91;5001837;28;20049;-50
2023/03/20 07:03:27;;;;;;;29.85;17.63;;;;;;;11.59;nan;101408.72;5008884;28;20034;-48
2023/03/20 07:05:52;;;;;;;30.92;15.68;;;;;;;11.52;nan;101408.19;5005821;28;20037;-49
2023/03/20 07:08:18;;;;;;;29.20;17.55;;;;;;;11.44;nan;101415.59;5006905;28;20022;-50
2023/03/20 07:10:43;;;;;;;30.05;15.40;;;;;;;11.35;nan;101416.09;5014400;28;20048;-47
2023/03/20 07:13:09;;;;;;;30.70;16.83;;;;;;;11.27;nan;101427.84;5017229;28;20392;-50
2023/03/20 07:15:35;;;;;;;32.78;17.02;;;;;;;11.20;nan;101426.47;5004883;28;20504;-51
2023/03/20 07:18:00;;;;;;;35.65;17.90;;;;;;;11.19;nan;101426.56;5007509;28;20045;-48
2023/03/20 07:20:26;;;;;;;30.50;17.77;;;;;;;11.11;nan;101432.19;5006666;28;20037;-50
2023/03/20 07:22:52;;;;;;;32.83;17.70;;;;;;;11.04;nan;101434.25;5002439;28;20109;-49
2023/03/20 07:25:17;;;;;;;31.02;16.17;;;;;;;10.99;nan;101428.38;4999974;28;21137;-49
2023/03/20 07:27:49;;;;;;;29.92;16.70;;;;;;;10.94;nan;101444.41;5000090;28;20029;-50
2023/03/20 07:30:15;;;;;;;30.98;17.05;;;;;;;10.94;nan;101439.13;5002670;28;20456;-51
2023/03/20 07:32:40;;;;;;;29.60;16.00;;;;;;;10.94;nan;101433.00;5001070;28;20498;-52
2023/03/20 07:35:06;;;;;;;32.00;16.50;;;;;;;10.87;nan;101442.97;5006898;28;20065;-50
2023/03/20 07:37:32;;;;;;;32.72;16.75;;;;;;;10.86;nan;101451.78;5008038;28;20116;-50
2023/03/20 08:10:49;;;;;;;32.97;16.10;;;;;;;10.90;nan;101469.16;5006237;28;20040;-48
2023/03/20 08:13:15;;;;;;;32.53;15.73;;;;;;;10.84;nan;101474.69;5008365;28;20120;-50
2023/03/20 08:15:40;;;;;;;28.58;14.75;;;;;;;10.81;nan;101482.78;5006807;28;20052;-52
2023/03/20 08:18:05;;;;;;;31.02;15.68;;;;;;;10.73;nan;101474.38;5006455;28;20661;-52
2023/03/20 08:20:31;;;;;;;35.90;16.70;;;;;;;10.72;nan;101476.16;5004759;28;20404;-48
2023/03/20 08:22:57;;;;;;;34.25;16.73;;;;;;;10.75;nan;101481.25;5004334;28;20079;-51
2023/03/20 08:25:22;;;;;;;43.63;18.95;;;;;;;10.85;nan;101481.69;5005777;28;20034;-51
2023/03/20 08:27:48;;;;;;;26.40;14.65;;;;;;;10.88;nan;101493.88;5004566;28;20041;-50
2023/03/20 08:30:14;;;;;;;33.88;16.90;;;;;;;10.85;nan;101500.09;5004124;28;20030;-53
2023/03/20 08:32:40;;;;;;;36.65;16.52;;;;;;;10.86;nan;101499.19;5005316;28;20030;-49
2023/03/20 08:35:07;;;;;;;35.95;16.20;;;;;;;10.91;nan;101491.94;5006032;28;20026;-50
2023/03/20 08:37:33;;;;;;;33.15;15.70;;;;;;;11.03;nan;101490.50;5004423;28;20129;-50
2023/03/20 08:39:59;;;;;;;30.88;14.93;;;;;;;11.09;nan;101484.09;5005606;28;20185;-48
2023/03/20 08:42:24;;;;;;;34.65;17.00;;;;;;;11.20;nan;101487.06;5009577;28;20034;-51
2023/03/20 08:44:50;;;;;;;20.50;9.70;;;;;;;11.28;nan;101490.16;5007647;28;20105;-50
2023/03/20 08:47:15;;;;;;;37.97;17.60;;;;;;;11.38;nan;101492.34;5005170;28;20030;-49
2023/03/20 08:49:42;;;;;;;38.58;17.35;;;;;;;11.42;nan;101491.25;5006785;28;20040;-50
2023/03/20 08:52:07;;;;;;;36.65;17.13;;;;;;;11.44;nan;101499.94;5002508;28;20479;-50
2023/03/20 08:54:33;;;;;;;32.10;15.25;;;;;;;11.50;nan;101489.09;5002866;28;20040;-49
2023/03/20 08:56:58;;;;;;;36.85;16.77;;;;;;;11.51;nan;101490.81;5005813;28;20065;-49
2023/03/20 08:59:24;;;;;;;40.40;17.67;;;;;;;11.58;nan;101486.09;5006459;28;20041;-51
2023/03/20 09:01:49;;;;;;;35.50;16.70;;;;;;;11.67;nan;101490.88;5004661;28;20503;-49
2023/03/20 09:04:15;;;;;;;35.60;15.93;;;;;;;11.71;nan;101487.19;5009946;28;20365;-50
2023/03/20 09:06:41;;;;;;;36.05;18.15;;;;;;;11.77;nan;101483.38;5007842;28;20080;-52
2023/03/20 09:09:07;;;;;;;20.35;10.38;;;;;;;11.82;nan;101478.72;5005973;28;20033;-49
2023/03/20 09:11:33;;;;;;;34.33;14.93;;;;;;;11.86;nan;101477.66;5000818;28;20121;-49
2023/03/20 09:13:59;;;;;;;33.40;16.08;;;;;;;11.93;nan;101472.91;5009636;28;20033;-53
2023/03/20 09:16:25;;;;;;;35.03;15.77;;;;;;;11.98;nan;101475.28;5007503;28;20125;-49
2023/03/20 09:18:50;;;;;;;34.38;15.30;;;;;;;11.98;nan;101473.53;5002299;28;20037;-51
2023/03/20 09:21:16;;;;;;;34.15;17.02;;;;;;;12.05;nan;101468.78;4997149;28;20069;-50
2023/03/20 09:23:42;;;;;;;35.22;16.42;;;;;;;12.09;nan;101469.50;4996534;28;20030;-53
2023/03/20 09:26:07;;;;;;;34.92;15.32;;;;;;;12.12;nan;101470.19;5006350;28;20036;-53
2023/03/20 09:28:32;;;;;;;32.88;15.02;;;;;;;12.15;nan;101472.66;5004730;28;20477;-51
2023/03/20 09:30:59;;;;;;;32.42;14.50;;;;;;;12.19;nan;101468.91;5007189;28;20608;-50
2023/03/20 09:33:25;;;;;;;33.00;14.63;;;;;;;12.27;nan;101467.66;4999898;28;20032;-51
2023/03/20 09:35:50;;;;;;;41.55;18.92;;;;;;;12.38;nan;101464.47;5004266;28;20041;-51
2023/03/20 09:38:16;;;;;;;39.55;15.77;;;;;;;12.39;nan;101477.56;5006619;28;20026;-53
2023/03/20 09:41:02;;;;;;;34.80;14.27;;;;;;;12.39;nan;101472.28;5002918;28;20153;-52
2023/03/20 09:43:52;;;;;;;32.60;14.20;;;;;;;12.41;nan;101474.81;5005390;28;20048;-50
2023/03/20 09:46:30;;;;;;;29.83;14.07;;;;;;;12.42;nan;101482.69;5004102;28;20388;-50
2023/03/20 09:48:58;;;;;;;34.75;15.27;;;;;;;12.41;nan;101485.38;5001038;28;20049;-50
2023/03/20 09:51:42;;;;;;;32.00;13.93;;;;;;;12.36;nan;101477.72;5002113;28;20026;-52
2023/03/20 09:54:21;;;;;;;29.75;12.65;;;;;;;12.39;nan;101477.56;5001502;28;20684;-52
2023/03/20 09:56:48;;;;;;;30.65;13.60;;;;;;;12.38;nan;101491.69;5004152;28;20567;-51
2023/03/20 09:59:16;;;;;;;32.30;13.90;;;;;;;12.39;nan;101488.13;4997729;28;20370;-50
2023/03/20 10:01:51;;;;;;;26.10;12.25;;;;;;;12.47;nan;101496.50;5006630;28;20424;-49
2023/03/20 10:04:17;;;;;;;28.38;12.30;;;;;;;12.40;nan;101500.38;5003056;28;20030;-52
2023/03/20 10:06:42;;;;;;;29.55;12.63;;;;;;;12.38;nan;101496.97;5005968;28;20034;-51
2023/03/20 10:09:23;;;;;;;28.98;12.68;;;;;;;12.41;nan;101490.66;5002362;28;20031;-50
2023/03/20 10:12:19;;;;;;;29.52;12.02;;;;;;;12.52;nan;101492.72;5002293;28;20053;-50
2023/03/20 10:15:26;;;;;;;28.20;12.55;;;;;;;12.56;nan;101483.72;4997499;28;20113;-50
2023/03/20 10:18:19;;;;;;;28.08;12.40;;;;;;;12.67;nan;101478.69;4977251;28;20033;-52
2023/03/20 10:20:56;;;;;;;31.63;13.32;;;;;;;12.70;nan;101481.16;5002185;28;20037;-51
2023/03/20 10:23:32;;;;;;;25.48;11.57;;;;;;;12.67;nan;101489.25;5003889;28;20026;-51
2023/03/20 10:26:07;;;;;;;33.40;10.82;;;;;;;12.66;nan;101484.91;5002226;28;20033;-52
2023/03/20 10:28:46;;;;;;;25.27;11.50;;;;;;;12.70;nan;101480.34;5007687;28;20030;-50
2023/03/20 10:31:36;;;;;;;27.40;10.80;;;;;;;12.72;nan;101481.94;5002998;28;20034;-52
2023/03/20 10:34:02;;;;;;;32.58;12.02;;;;;;;12.80;nan;101470.97;5005813;28;20484;-52
2023/03/20 10:36:30;;;;;;;27.15;12.60;;;;;;;12.90;nan;101471.31;5007084;28;20036;-50
2023/03/20 10:39:33;;;;;;;30.67;12.68;;;;;;;12.97;nan;101467.34;5005374;28;20038;-51
2023/03/20 10:42:02;;;;;;;23.10;11.20;;;;;;;13.09;nan;101471.09;5008893;28;20038;-51
2023/03/20 10:44:34;;;;;;;28.45;13.23;;;;;;;13.17;nan;101453.00;5000850;28;20488;-49
2023/03/20 10:47:02;;;;;;;31.65;12.93;;;;;;;13.25;nan;101463.13;5004978;28;20026;-51
2023/03/20 10:49:59;;;;;;;34.08;14.02;;;;;;;13.21;nan;101456.34;5001031;28;20026;-49
2023/03/20 10:52:32;;;;;;;29.48;12.98;;;;;;;13.14;nan;101453.22;5000871;28;20428;-52
2023/03/20 10:55:15;;;;;;;32.55;13.57;;;;;;;13.12;nan;101460.38;5002519;28;20034;-50
2023/03/20 10:57:47;;;;;;;28.75;11.32;;;;;;;13.14;nan;101457.63;5004113;28;20041;-56
2023/03/20 11:00:18;;;;;;;;;;;;;;;13.15;nan;101460.19;4998681;28;20029;-54
2023/03/20 11:02:44;;;;;;;33.83;14.02;;;;;;;13.24;nan;101464.06;5005823;28;20733;-51
2023/03/20 11:05:19;;;;;;;32.60;13.68;;;;;;;13.28;nan;101460.31;5001881;28;20037;-50
2023/03/20 11:07:46;;;;;;;28.35;12.60;;;;;;;13.21;nan;101457.19;5000980;28;20515;-48
2023/03/20 11:10:15;;;;;;;30.52;12.80;;;;;;;13.22;nan;101460.69;5001301;28;20077;-51
2023/03/20 11:12:49;;;;;;;31.25;13.63;;;;;;;13.21;nan;101448.41;4999374;28;20025;-51
2023/03/20 11:15:31;;;;;;;26.27;11.45;;;;;;;13.19;nan;101452.94;5003690;28;20713;-50
2023/03/20 11:17:58;;;;;;;17.63;6.95;;;;;;;13.19;nan;101451.13;5004203;28;20061;-50
2023/03/20 11:20:25;;;;;;;25.70;10.35;;;;;;;13.24;nan;101448.22;5004241;28;20022;-50
2023/03/20 11:22:58;;;;;;;23.63;11.15;;;;;;;13.30;nan;101444.41;4997734;28;20030;-51
2023/03/20 11:25:45;;;;;;;27.60;11.10;;;;;;;13.36;nan;101444.88;5003527;28;20081;-51
2023/03/20 11:28:34;;;;;;;28.10;10.77;;;;;;;13.37;nan;101451.88;5003433;28;20022;-53
2023/03/20 11:31:07;;;;;;;28.80;12.25;;;;;;;13.37;nan;101446.59;5004770;28;20033;-49
2023/03/20 11:33:38;;;;;;;21.48;10.18;;;;;;;13.41;nan;101449.94;5008479;28;20029;-52
2023/03/20 11:36:20;;;;;;;25.77;9.25;;;;;;;13.41;nan;101445.47;5001541;28;20116;-49
2023/03/20 11:38:46;;;;;;;22.58;11.23;;;;;;;13.31;nan;101449.59;5020781;28;20038;-51
2023/03/20 11:41:23;;;;;;;21.95;9.15;;;;;;;13.30;nan;101453.16;5007434;28;20760;-53
2023/03/20 11:43:49;;;;;;;22.23;9.55;;;;;;;13.27;nan;101442.75;5012304;28;20022;-49
2023/03/20 11:46:14;;;;;;;21.38;10.05;;;;;;;13.26;nan;101438.41;5010308;28;20052;-51
2023/03/20 11:48:44;;;;;;;18.73;8.82;;;;;;;13.23;nan;101441.25;5011714;28;20046;-54
2023/03/20 11:51:17;;;;;;;22.88;9.77;;;;;;;13.20;nan;101433.50;5008078;28;20022;-51
2023/03/20 11:53:48;;;;;;;15.88;7.65;;;;;;;13.15;nan;101433.78;5008355;28;20665;-51
2023/03/20 11:56:22;;;;;;;16.55;7.72;;;;;;;13.15;nan;101441.72;5003859;28;20489;-51
2023/03/20 11:59:06;;;;;;;17.98;7.70;;;;;;;13.14;nan;101441.78;5004167;28;20398;-52
2023/03/20 12:01:58;;;;;;;19.10;8.32;;;;;;;13.16;nan;101431.97;5009643;28;20026;-50
2023/03/20 12:04:36;;;;;;;16.58;7.45;;;;;;;13.14;nan;101437.34;5008653;28;20096;-49
2023/03/20 12:07:19;;;;;;;15.00;6.63;;;;;;;13.13;nan;101445.34;5009515;28;20034;-52
2023/03/20 12:09:51;;;;;;;13.30;5.72;;;;;;;13.09;nan;101442.03;5012126;28;20022;-52
2023/03/20 12:12:39;;;;;;;10.27;4.32;;;;;;;13.09;nan;101440.25;5000101;28;20046;-52